Weather at Talu Airport

Public forecast

Using degrees Celsius for public forecast. Weather courtesy of forecast.io.

Closest aviation weather report (METAR) to Talu Airport

Closest report is Jomo Kenyatta International Airport, 10.4 nm (19.3 km) S.

2024/04/18 00:00 (retrieved 49 minutes ago)

HKJK 180000Z 21004KT 9999 BKN017 BKN080 18/18 Q1021 NOSIG

Closest aviation forecast (TAF) to Talu Airport

Forecast is more than 6 hours old.

Closest forecast is Jomo Kenyatta International Airport, 10.4 nm (19.3 km) S.

2024/04/17 12:54 (retrieved 12 hours ago)

TAF HKJK 171100Z 1712/1818 14010KT 9999 BKN026 TEMPO 1713/1717 -SHRA FEW020CB SCT021 SCT080 BECMG 1721/1724 VRB05KT -RA SCT018 BKN080 BECMG 1808/1811 14010KT NSW FEW025CB BKN026 TEMPO 1814/1818 -SHRA FEW020CB SCT021 SCT080